Time;durP1;ratioP1;P1;durP2;ratioP2;P2;SDS_P1;SDS_P2;PMS_P1;PMS_P2;Temp;Humidity;BMP_temperature;BMP_pressure;BME280_temperature;BME280_humidity;BME280_pressure;Samples;Min_cycle;Max_cycle;Signal;HPM_P1;HPM_P2
2023/05/22 00:00:53;;;;;;;4.30;2.40;;;15.60;99.90;;;;;;10444920;28;20202;-74
2023/05/22 00:06:34;;;;;;;3.75;2.38;;;15.60;99.90;;;;;;10434515;28;20247;-75
2023/05/22 00:11:55;;;;;;;4.10;2.38;;;15.50;99.90;;;;;;10439327;28;20215;-75
2023/05/22 00:17:17;;;;;;;4.15;2.50;;;15.50;99.90;;;;;;10414634;28;20211;-76
2023/05/22 00:22:38;;;;;;;3.85;2.55;;;15.50;99.90;;;;;;10402082;28;20197;-77
2023/05/22 00:27:59;;;;;;;5.43;3.83;;;15.40;99.90;;;;;;10434302;28;20226;-74
2023/05/22 00:33:20;;;;;;;5.85;3.40;;;15.40;1.00;;;;;;10442517;28;20191;-76
2023/05/22 00:38:41;;;;;;;4.72;3.05;;;15.30;1.00;;;;;;10441545;28;20298;-76
2023/05/22 00:44:02;;;;;;;3.72;2.90;;;15.30;1.00;;;;;;10439912;28;20206;-76
2023/05/22 00:49:23;;;;;;;2.72;2.42;;;15.30;1.00;;;;;;10441087;28;20231;-76
2023/05/22 00:54:46;;;;;;;3.25;2.53;;;15.30;1.00;;;;;;10440875;28;20237;-76
2023/05/22 01:00:12;;;;;;;7.20;2.33;;;15.30;1.00;;;;;;10482653;28;20280;-76
2023/05/22 01:05:33;;;;;;;4.70;2.90;;;15.30;1.00;;;;;;10482378;28;20418;-76
2023/05/22 01:11:07;;;;;;;3.85;2.75;;;15.30;1.00;;;;;;10463466;28;20242;-76
2023/05/22 01:16:40;;;;;;;4.45;2.55;;;15.30;1.00;;;;;;10418858;28;20254;-76
2023/05/22 01:22:21;;;;;;;3.72;2.60;;;15.30;1.00;;;;;;10426014;28;20279;-76
2023/05/22 01:28:03;;;;;;;12.77;4.80;;;15.20;1.00;;;;;;10401738;28;20223;-76
2023/05/22 01:33:27;;;;;;;9.98;4.85;;;15.20;1.00;;;;;;10440148;28;20277;-75
2023/05/22 01:38:50;;;;;;;13.15;6.18;;;15.20;1.00;;;;;;10467304;28;20212;-76
2023/05/22 01:44:11;;;;;;;8.90;4.30;;;15.20;1.00;;;;;;10438020;28;20222;-75
2023/05/22 01:49:34;;;;;;;6.85;4.10;;;15.20;1.00;;;;;;10439631;28;20222;-76
2023/05/22 01:55:08;;;;;;;3.65;2.65;;;15.20;1.00;;;;;;10439394;28;20190;-76
2023/05/22 02:00:32;;;;;;;3.67;2.92;;;15.10;1.00;;;;;;10486736;28;20228;-76
2023/05/22 02:05:54;;;;;;;7.68;2.88;;;15.10;1.00;;;;;;10480072;28;20440;-76
2023/05/22 02:11:17;;;;;;;4.15;2.75;;;15.00;1.00;;;;;;10445265;28;20544;-76
2023/05/22 02:16:38;;;;;;;5.18;3.53;;;14.80;1.00;;;;;;10416220;28;20235;-76
2023/05/22 02:21:59;;;;;;;7.80;4.65;;;14.80;1.00;;;;;;10410595;28;20198;-75
2023/05/22 02:27:20;;;;;;;5.93;3.80;;;14.70;1.00;;;;;;10436173;28;20276;-76
2023/05/22 02:32:42;;;;;;;4.30;2.65;;;14.70;1.00;;;;;;10438039;28;20201;-76
2023/05/22 02:38:04;;;;;;;6.97;3.13;;;14.70;1.00;;;;;;10463367;28;20206;-76
2023/05/22 02:43:26;;;;;;;7.40;2.88;;;14.70;1.00;;;;;;10436460;28;20197;-76
2023/05/22 02:48:47;;;;;;;6.47;3.05;;;14.70;34.00;;;;;;10436391;28;20225;-75
2023/05/22 02:54:08;;;;;;;5.50;3.28;;;14.60;71.40;;;;;;10448163;28;20208;-76
2023/05/22 02:59:30;;;;;;;5.53;3.53;;;14.50;85.40;;;;;;10450346;28;20229;-76
2023/05/22 03:04:51;;;;;;;4.43;3.47;;;14.40;65.10;;;;;;10436643;28;20222;-76
2023/05/22 03:10:12;;;;;;;5.75;3.40;;;14.30;99.90;;;;;;10434772;28;20624;-76
2023/05/22 03:15:35;;;;;;;6.53;3.45;;;14.40;99.90;;;;;;10422702;28;20220;-76
2023/05/22 03:21:05;;;;;;;4.43;3.40;;;14.40;99.90;;;;;;10408330;28;20204;-76
2023/05/22 03:26:29;;;;;;;6.57;4.00;;;14.40;99.90;;;;;;10424099;28;20203;-76
2023/05/22 03:31:53;;;;;;;5.22;3.90;;;14.40;99.90;;;;;;10435324;28;20223;-76
2023/05/22 03:37:14;;;;;;;4.82;3.97;;;14.40;99.90;;;;;;10435934;28;20306;-76
2023/05/22 03:42:36;;;;;;;6.22;3.80;;;14.50;99.90;;;;;;10434718;28;20228;-77
2023/05/22 03:47:57;;;;;;;7.60;4.55;;;14.60;99.90;;;;;;10440798;28;20218;-76
2023/05/22 03:53:18;;;;;;;12.88;3.90;;;14.70;99.90;;;;;;10446877;28;20226;-74
2023/05/22 03:58:39;;;;;;;5.18;3.85;;;14.70;99.90;;;;;;10449878;28;20238;-76
2023/05/22 04:04:00;;;;;;;5.57;3.85;;;14.80;99.90;;;;;;10471012;28;20230;-75
2023/05/22 04:09:25;;;;;;;4.20;3.63;;;14.90;99.90;;;;;;10441543;28;20257;-75
2023/05/22 04:14:46;;;;;;;6.28;3.85;;;15.00;73.50;;;;;;10436475;28;20449;-75
2023/05/22 04:20:07;;;;;;;7.60;5.07;;;15.10;56.50;;;;;;10429310;28;20466;-75
2023/05/22 04:25:29;;;;;;;7.18;5.28;;;15.10;1.00;;;;;;10431974;28;20200;-75
2023/05/22 04:30:50;;;;;;;7.00;4.97;;;15.20;1.00;;;;;;10441246;28;20229;-75
2023/05/22 04:36:11;;;;;;;4.65;4.15;;;15.20;1.00;;;;;;10442497;28;20489;-75
2023/05/22 04:41:33;;;;;;;8.43;3.28;;;15.30;1.00;;;;;;10441423;28;20206;-75
2023/05/22 04:46:56;;;;;;;5.28;3.45;;;15.50;1.00;;;;;;10401252;28;20194;-74
2023/05/22 04:52:17;;;;;;;5.95;3.88;;;15.60;1.00;;;;;;10437758;28;20226;-75
2023/05/22 04:57:39;;;;;;;6.15;3.50;;;15.70;1.00;;;;;;10439404;28;20259;-75
2023/05/22 05:03:00;;;;;;;3.78;2.60;;;15.90;1.00;;;;;;10457998;28;20241;-75
2023/05/22 05:08:21;;;;;;;4.60;2.97;;;16.00;1.00;;;;;;10481323;28;20258;-75
2023/05/22 05:13:42;;;;;;;6.28;3.33;;;16.10;1.00;;;;;;10439891;28;20213;-75
2023/05/22 05:19:03;;;;;;;9.07;4.05;;;16.20;1.00;;;;;;10418958;28;20203;-75
2023/05/22 05:24:24;;;;;;;5.05;3.35;;;16.40;1.00;;;;;;10439432;28;20198;-75
2023/05/22 05:29:46;;;;;;;11.20;3.33;;;16.50;1.00;;;;;;10439468;28;20388;-75
2023/05/22 05:35:18;;;;;;;3.72;2.97;;;16.60;1.00;;;;;;10438245;28;20204;-75
2023/05/22 05:40:44;;;;;;;5.10;2.70;;;16.70;1.00;;;;;;10438839;28;20191;-75
2023/05/22 05:46:06;;;;;;;4.78;3.03;;;16.80;1.00;;;;;;10439309;28;20479;-74
2023/05/22 05:51:28;;;;;;;7.15;3.05;;;17.10;1.00;;;;;;10437921;28;20228;-75
2023/05/22 05:56:49;;;;;;;8.93;3.33;;;17.20;1.00;;;;;;10437834;28;20377;-75
2023/05/22 06:02:11;;;;;;;6.05;3.20;;;17.40;1.00;;;;;;10444620;28;20274;-76
2023/05/22 06:07:36;;;;;;;4.30;3.03;;;17.60;1.00;;;;;;10478238;28;20232;-75
2023/05/22 06:12:59;;;;;;;3.50;2.70;;;17.80;1.00;;;;;;10442845;28;20231;-73
2023/05/22 06:18:22;;;;;;;8.35;2.83;;;18.10;1.00;;;;;;10422922;28;20204;-74
2023/05/22 06:23:45;;;;;;;6.80;3.33;;;18.30;1.00;;;;;;10438039;28;20354;-73
2023/05/22 06:29:06;;;;;;;6.07;2.70;;;18.70;1.00;;;;;;10428767;28;20231;-74
2023/05/22 06:34:29;;;;;;;2.85;2.35;;;19.10;1.00;;;;;;10434763;28;20541;-75
2023/05/22 06:39:51;;;;;;;4.40;2.80;;;19.60;1.00;;;;;;10436231;28;20421;-77
2023/05/22 06:45:45;;;;;;;5.72;2.65;;;20.00;1.00;;;;;;10436839;28;20226;-76
2023/05/22 06:51:08;;;;;;;10.00;3.13;;;20.60;99.90;;;;;;10435851;28;20220;-76
2023/05/22 06:56:32;;;;;;;4.97;2.90;;;21.20;99.90;;;;;;10436149;28;20188;-77
2023/05/22 07:01:59;;;;;;;6.20;2.92;;;21.70;99.90;;;;;;10451598;28;20506;-74
2023/05/22 07:07:40;;;;;;;5.15;2.55;;;22.00;99.90;;;;;;10461380;28;20272;-76
2023/05/22 07:13:01;;;;;;;5.70;2.30;;;22.30;99.90;;;;;;10432656;28;20275;-76
2023/05/22 07:18:25;;;;;;;4.00;2.17;;;22.60;99.90;;;;;;10423354;28;20200;-76
2023/05/22 07:23:46;;;;;;;10.30;2.85;;;23.00;99.90;;;;;;10435859;28;20188;-78
2023/05/22 07:29:07;;;;;;;9.52;2.72;;;23.40;99.90;;;;;;10393983;28;20240;-74
2023/05/22 07:34:33;;;;;;;3.58;2.45;;;24.00;99.90;;;;;;10363296;28;20229;-75
2023/05/22 07:39:56;;;;;;;3.03;2.17;;;24.80;99.90;;;;;;10388350;28;20239;-75
2023/05/22 07:45:17;;;;;;;4.25;2.40;;;25.10;99.90;;;;;;10403609;28;20197;-75
2023/05/22 07:50:43;;;;;;;4.97;2.63;;;25.20;99.90;;;;;;10400690;28;20236;-77
2023/05/22 07:56:05;;;;;;;4.43;2.20;;;25.40;99.90;;;;;;10407995;28;20247;-77
2023/05/22 08:01:27;;;;;;;5.80;2.25;;;26.10;99.90;;;;;;10390858;28;20190;-82
2023/05/22 08:06:49;;;;;;;7.55;2.58;;;26.10;99.90;;;;;;10365525;28;20237;-80
2023/05/22 08:12:09;;;;;;;7.40;2.30;;;26.20;99.90;;;;;;10380874;28;20228;-76
2023/05/22 08:17:30;;;;;;;8.93;2.35;;;26.40;99.90;;;;;;10364242;28;20216;-78
2023/05/22 08:22:53;;;;;;;2.92;2.33;;;26.80;99.90;;;;;;10380912;28;20399;-77
2023/05/22 08:28:14;;;;;;;3.72;2.25;;;26.80;99.90;;;;;;10435893;28;20193;-80
2023/05/22 08:33:36;;;;;;;6.95;3.72;;;27.00;99.90;;;;;;10411174;28;20223;-79
2023/05/22 08:38:57;;;;;;;2.67;1.98;;;27.40;99.90;;;;;;10389069;28;20209;-78
2023/05/22 08:44:19;;;;;;;4.10;2.13;;;27.80;99.90;;;;;;10405843;28;20197;-79
2023/05/22 08:49:41;;;;;;;2.95;2.08;;;28.10;99.90;;;;;;10373675;28;20222;-78
2023/05/22 08:55:06;;;;;;;3.42;1.85;;;28.40;99.90;;;;;;10379931;28;20272;-77
2023/05/22 09:00:28;;;;;;;6.03;2.30;;;28.50;99.90;;;;;;10369912;28;20268;-78
2023/05/22 09:05:51;;;;;;;3.55;1.77;;;28.80;99.90;;;;;;10354621;28;20240;-78
2023/05/22 09:11:12;;;;;;;5.88;2.40;;;28.80;99.90;;;;;;10388423;28;20221;-79
2023/05/22 09:16:42;;;;;;;2.80;2.45;;;28.60;99.90;;;;;;10394230;28;20511;-80
2023/05/22 09:22:06;;;;;;;6.97;2.20;;;28.00;99.90;;;;;;10410730;28;20212;-80
2023/05/22 09:27:27;;;;;;;8.18;2.60;;;28.40;99.90;;;;;;10446413;28;20561;-78
2023/05/22 09:32:48;;;;;;;5.07;2.40;;;28.80;99.90;;;;;;10406884;28;20237;-76
2023/05/22 09:38:09;;;;;;;4.75;2.45;;;29.00;99.90;;;;;;10353542;28;20268;-89
2023/05/22 09:43:32;;;;;;;3.70;2.47;;;28.90;99.90;;;;;;10367012;28;20196;-78
2023/05/22 09:48:53;;;;;;;3.53;1.77;;;28.90;99.90;;;;;;10375128;28;20228;-75
2023/05/22 09:54:15;;;;;;;4.07;2.17;;;28.90;99.90;;;;;;10376613;28;20288;-78
2023/05/22 09:59:39;;;;;;;5.63;2.17;;;29.30;99.90;;;;;;10389185;28;20201;-79
2023/05/22 10:05:02;;;;;;;2.72;1.92;;;29.40;99.90;;;;;;10370885;28;20288;-77
2023/05/22 10:10:24;;;;;;;2.53;1.73;;;28.80;99.90;;;;;;10391229;28;20235;-79
2023/05/22 10:15:49;;;;;;;7.20;2.15;;;28.60;99.90;;;;;;10389698;28;20197;-76
2023/05/22 10:21:11;;;;;;;3.25;1.88;;;28.60;99.90;;;;;;10392022;28;20377;-79
2023/05/22 10:26:33;;;;;;;2.90;2.00;;;28.60;99.90;;;;;;10407773;28;20201;-83
2023/05/22 10:31:59;;;;;;;3.38;2.17;;;28.60;99.90;;;;;;10388717;28;20225;-77
2023/05/22 10:37:35;;;;;;;3.45;2.08;;;28.50;99.90;;;;;;10404736;28;20197;-80
2023/05/22 10:43:00;;;;;;;2.85;1.98;;;28.60;99.90;;;;;;10391466;28;20217;-79
2023/05/22 10:48:22;;;;;;;2.38;1.95;;;28.50;99.90;;;;;;10407921;28;20411;-77
2023/05/22 10:53:44;;;;;;;5.80;2.17;;;28.60;99.90;;;;;;10432402;28;20368;-77
2023/05/22 10:59:06;;;;;;;5.70;2.53;;;28.70;99.90;;;;;;10395423;28;20196;-82
2023/05/22 11:04:28;;;;;;;3.88;1.75;;;28.80;99.90;;;;;;10427746;28;20462;-76
2023/05/22 11:09:59;;;;;;;4.88;2.08;;;28.90;99.90;;;;;;10422725;28;20229;-80
2023/05/22 11:15:30;;;;;;;3.08;1.90;;;29.20;99.90;;;;;;10389144;28;20275;-80
2023/05/22 11:20:53;;;;;;;3.08;2.00;;;29.00;99.90;;;;;;10350065;28;20221;-81
2023/05/22 11:26:19;;;;;;;3.10;1.90;;;29.40;99.90;;;;;;10379173;28;20197;-82
2023/05/22 11:31:40;;;;;;;5.43;2.40;;;29.30;99.90;;;;;;10398203;28;20266;-80
2023/05/22 11:37:02;;;;;;;3.47;2.30;;;29.50;99.90;;;;;;10405635;28;20203;-78
2023/05/22 11:42:24;;;;;;;7.18;2.28;;;29.60;99.90;;;;;;10389519;28;20268;-79
2023/05/22 11:48:00;;;;;;;7.30;2.28;;;29.80;99.90;;;;;;10377325;28;20211;-77
2023/05/22 11:53:47;;;;;;;6.82;2.70;;;29.70;99.90;;;;;;10376392;28;20213;-77
2023/05/22 11:59:08;;;;;;;6.47;2.22;;;29.00;99.90;;;;;;10349313;28;20228;-78
2023/05/22 12:04:31;;;;;;;4.63;2.65;;;29.00;99.90;;;;;;10340439;28;20249;-79
2023/05/22 12:09:55;;;;;;;4.40;2.05;;;29.00;99.90;;;;;;10377877;28;20228;-77
2023/05/22 12:15:19;;;;;;;2.53;2.10;;;29.00;99.90;;;;;;10408250;28;20244;-77
2023/05/22 12:20:42;;;;;;;5.20;1.92;;;28.70;99.90;;;;;;10378039;28;20375;-81
2023/05/22 12:26:08;;;;;;;4.47;2.58;;;28.70;99.90;;;;;;10402031;28;20215;-79
2023/05/22 12:31:35;;;;;;;7.78;2.88;;;28.70;99.90;;;;;;10404312;28;20243;-78
2023/05/22 12:36:56;;;;;;;2.58;2.25;;;28.80;99.90;;;;;;10411150;28;20189;-79
2023/05/22 12:42:18;;;;;;;3.35;1.92;;;28.60;99.90;;;;;;10409267;28;20464;-78
2023/05/22 12:47:39;;;;;;;4.60;1.90;;;28.60;99.90;;;;;;10411383;28;20208;-80
2023/05/22 12:53:03;;;;;;;4.28;2.25;;;28.80;99.90;;;;;;10406100;28;20320;-86
2023/05/22 12:58:24;;;;;;;4.55;1.67;;;28.50;99.90;;;;;;10368766;28;20193;-79
2023/05/22 13:03:46;;;;;;;2.80;1.70;;;28.30;99.90;;;;;;10396787;28;20613;-82
2023/05/22 13:09:07;;;;;;;2.75;1.98;;;28.30;99.90;;;;;;10373063;28;20229;-81
2023/05/22 13:14:28;;;;;;;2.08;1.75;;;28.50;99.90;;;;;;10407781;28;20280;-77
2023/05/22 13:19:50;;;;;;;2.67;1.95;;;28.20;99.90;;;;;;10392134;28;20212;-77
2023/05/22 13:25:12;;;;;;;4.15;2.10;;;28.00;99.90;;;;;;10394684;28;20243;-80
2023/05/22 13:30:33;;;;;;;3.20;2.05;;;27.90;99.90;;;;;;10393926;28;20235;-77
2023/05/22 13:35:54;;;;;;;2.20;1.67;;;28.20;99.90;;;;;;10408357;28;20212;-77
2023/05/22 13:41:16;;;;;;;3.03;2.10;;;28.30;99.90;;;;;;10388569;28;20217;-78
2023/05/22 13:46:37;;;;;;;4.30;1.90;;;28.40;99.90;;;;;;10410208;28;20369;-80
2023/05/22 13:51:59;;;;;;;2.08;1.85;;;28.00;99.90;;;;;;10362001;28;20233;-78
2023/05/22 13:57:21;;;;;;;4.10;2.47;;;27.60;99.90;;;;;;10364976;28;20568;-78
2023/05/22 14:02:42;;;;;;;3.40;2.30;;;27.60;99.90;;;;;;10369826;28;20394;-78
2023/05/22 14:08:03;;;;;;;2.25;2.05;;;27.30;99.90;;;;;;10392453;28;20255;-76
2023/05/22 14:13:24;;;;;;;3.70;2.28;;;26.90;99.90;;;;;;10363632;28;20248;-83
2023/05/22 14:18:45;;;;;;;6.70;2.15;;;26.70;99.90;;;;;;10397260;28;20482;-79
2023/05/22 14:24:07;;;;;;;5.05;2.55;;;26.40;99.90;;;;;;10420264;28;20231;-79
2023/05/22 14:29:27;;;;;;;3.33;2.17;;;26.30;99.90;;;;;;10389254;28;20292;-79
2023/05/22 14:34:48;;;;;;;4.95;2.53;;;26.20;99.90;;;;;;10385565;28;20208;-79
2023/05/22 14:40:10;;;;;;;2.53;1.95;;;26.10;99.90;;;;;;10395596;28;20776;-81
2023/05/22 14:45:31;;;;;;;3.53;1.90;;;25.80;99.90;;;;;;10356576;28;20247;-77
2023/05/22 14:50:52;;;;;;;2.72;1.80;;;25.90;99.90;;;;;;10389843;28;20225;-78
2023/05/22 14:56:14;;;;;;;2.35;1.92;;;26.00;99.90;;;;;;10352717;28;20193;-79
2023/05/22 15:01:38;;;;;;;3.80;2.25;;;25.90;99.90;;;;;;10386595;28;20220;-78
2023/05/22 15:07:00;;;;;;;4.40;2.38;;;25.90;99.90;;;;;;10387677;28;20243;-78
2023/05/22 15:12:21;;;;;;;2.70;1.88;;;25.80;99.90;;;;;;10376661;28;20251;-75
2023/05/22 15:17:42;;;;;;;4.72;1.90;;;25.70;99.90;;;;;;10390173;28;20197;-75
2023/05/22 15:23:04;;;;;;;3.35;1.83;;;25.50;99.90;;;;;;10402104;28;20280;-77
2023/05/22 15:28:25;;;;;;;2.55;2.10;;;25.40;99.90;;;;;;10402264;28;20192;-78
2023/05/22 15:33:47;;;;;;;7.35;2.47;;;25.10;99.90;;;;;;10435173;28;20391;-78
2023/05/22 15:39:08;;;;;;;4.35;1.80;;;24.70;99.90;;;;;;10389311;28;20244;-78
2023/05/22 15:44:29;;;;;;;4.85;2.25;;;24.60;99.90;;;;;;10399210;28;20312;-79
2023/05/22 15:49:50;;;;;;;6.93;2.33;;;24.50;99.90;;;;;;10385815;28;20279;-76
2023/05/22 15:55:11;;;;;;;3.65;2.22;;;24.20;99.90;;;;;;10391434;28;20189;-76
2023/05/22 16:00:39;;;;;;;2.67;2.30;;;24.10;99.90;;;;;;10400833;28;20296;-76
2023/05/22 16:06:01;;;;;;;4.97;2.00;;;24.10;99.90;;;;;;10359285;28;20241;-78
2023/05/22 16:11:22;;;;;;;2.95;1.90;;;23.80;99.90;;;;;;10363285;28;20253;-77
2023/05/22 16:16:43;;;;;;;2.47;1.60;;;23.80;99.90;;;;;;10377824;28;20193;-78
2023/05/22 16:22:04;;;;;;;5.93;2.80;;;23.70;99.90;;;;;;10402507;28;20204;-77
2023/05/22 16:27:25;;;;;;;2.15;1.95;;;23.80;99.90;;;;;;10401285;28;20490;-77
2023/05/22 16:32:47;;;;;;;3.25;2.15;;;23.80;99.90;;;;;;10401727;28;20225;-76
2023/05/22 16:38:10;;;;;;;5.72;2.00;;;23.70;99.90;;;;;;10400446;28;20194;-77
2023/05/22 16:43:32;;;;;;;2.70;2.00;;;23.50;99.90;;;;;;10399522;28;20208;-76
2023/05/22 16:48:52;;;;;;;3.85;2.05;;;23.30;99.90;;;;;;10429990;28;20463;-77
2023/05/22 16:54:14;;;;;;;2.55;2.30;;;23.10;99.90;;;;;;10441165;28;20498;-77
2023/05/22 16:59:35;;;;;;;4.85;2.20;;;23.00;99.90;;;;;;10416894;28;20328;-77
2023/05/22 17:04:56;;;;;;;3.50;2.28;;;22.90;99.90;;;;;;10400248;28;20256;-78
2023/05/22 17:10:17;;;;;;;7.55;3.63;;;22.80;99.90;;;;;;10399010;28;20236;-77
2023/05/22 17:15:38;;;;;;;7.63;3.28;;;22.70;99.90;;;;;;10400252;28;20268;-78
2023/05/22 17:21:00;;;;;;;4.25;2.70;;;22.50;99.90;;;;;;10399028;28;20220;-78
2023/05/22 17:26:21;;;;;;;3.92;2.80;;;22.40;99.90;;;;;;10399706;28;20349;-77
2023/05/22 17:31:42;;;;;;;5.47;2.67;;;22.30;99.90;;;;;;10364904;28;20233;-77
2023/05/22 17:37:04;;;;;;;6.15;2.80;;;22.20;99.90;;;;;;10358704;28;20190;-75
2023/05/22 17:42:25;;;;;;;6.93;2.58;;;22.10;99.90;;;;;;10397107;28;20417;-77
2023/05/22 17:47:46;;;;;;;5.95;2.58;;;22.00;99.90;;;;;;10375229;28;20213;-78
2023/05/22 17:53:07;;;;;;;5.22;2.45;;;21.90;99.90;;;;;;10358516;28;20292;-76
2023/05/22 17:58:28;;;;;;;7.10;2.67;;;21.70;99.90;;;;;;10366853;28;20200;-78
2023/05/22 18:03:49;;;;;;;3.88;2.60;;;;;;;;;;10379571;28;20241;-75
2023/05/22 18:09:10;;;;;;;3.03;2.50;;;21.50;1.00;;;;;;10372064;28;20212;-77
2023/05/22 18:14:31;;;;;;;3.38;2.50;;;21.20;99.90;;;;;;10411162;28;20189;-79
2023/05/22 18:19:52;;;;;;;9.73;2.70;;;21.10;99.90;;;;;;10412487;28;20220;-76
2023/05/22 18:25:14;;;;;;;2.53;2.33;;;20.90;99.90;;;;;;10438486;28;20188;-76
2023/05/22 18:30:34;;;;;;;6.15;3.25;;;20.80;99.90;;;;;;10416984;28;20231;-78
2023/05/22 18:35:56;;;;;;;11.70;4.30;;;20.60;99.90;;;;;;10397577;28;20434;-76
2023/05/22 18:41:17;;;;;;;15.60;6.55;;;20.40;99.90;;;;;;10384542;28;20204;-78
2023/05/22 18:46:38;;;;;;;20.63;7.40;;;20.20;99.90;;;;;;10380154;28;20193;-78
2023/05/22 18:51:59;;;;;;;15.05;5.60;;;20.10;99.90;;;;;;10393602;28;20247;-78
2023/05/22 18:57:21;;;;;;;9.48;3.88;;;20.00;99.90;;;;;;10395632;28;20195;-78
2023/05/22 19:02:42;;;;;;;8.25;3.72;;;19.80;99.90;;;;;;10394606;28;20205;-77
2023/05/22 19:08:04;;;;;;;7.15;3.85;;;19.70;99.90;;;;;;10365655;28;20546;-78
2023/05/22 19:13:25;;;;;;;12.43;4.25;;;19.60;99.90;;;;;;10373680;28;20256;-79
2023/05/22 19:18:46;;;;;;;11.38;4.78;;;19.40;99.90;;;;;;10391534;28;20295;-79
2023/05/22 19:24:08;;;;;;;10.20;3.88;;;19.30;99.90;;;;;;10434306;28;20227;-76
2023/05/22 19:29:29;;;;;;;5.97;3.70;;;19.10;99.90;;;;;;10429405;28;20513;-76
2023/05/22 19:34:50;;;;;;;4.55;3.00;;;19.00;99.90;;;;;;10392180;28;20247;-78
2023/05/22 19:40:11;;;;;;;4.80;2.95;;;19.00;99.90;;;;;;10408639;28;20207;-78
2023/05/22 19:45:32;;;;;;;5.82;3.47;;;18.90;99.90;;;;;;10384912;28;20197;-77
2023/05/22 19:50:53;;;;;;;9.63;6.45;;;18.80;99.90;;;;;;10386228;28;20312;-75
2023/05/22 19:56:14;;;;;;;13.40;8.90;;;18.70;99.90;;;;;;10395392;28;20193;-77
2023/05/22 20:01:36;;;;;;;15.48;9.48;;;18.60;99.90;;;;;;10393990;28;20231;-77
2023/05/22 20:06:57;;;;;;;9.15;5.75;;;18.40;99.90;;;;;;10373653;28;20233;-77
2023/05/22 20:12:18;;;;;;;5.70;4.07;;;18.30;99.90;;;;;;10394082;28;20239;-78
2023/05/22 20:17:41;;;;;;;10.80;4.88;;;;;;;;;;10392470;28;20212;-78
2023/05/22 20:23:02;;;;;;;11.95;4.75;;;18.30;1.00;;;;;;10394759;28;20194;-78
2023/05/22 20:28:24;;;;;;;12.63;6.03;;;18.10;1.00;;;;;;10395413;28;20288;-77
2023/05/22 20:33:45;;;;;;;18.75;7.75;;;18.20;99.90;;;;;;10387138;28;20220;-79
2023/05/22 20:39:07;;;;;;;16.60;7.15;;;18.00;99.90;;;;;;10400082;28;20425;-78
2023/05/22 20:44:30;;;;;;;15.70;6.55;;;18.00;99.90;;;;;;10400786;28;20541;-78
2023/05/22 20:49:51;;;;;;;22.98;5.78;;;17.90;99.90;;;;;;10399795;28;20561;-78
2023/05/22 20:55:12;;;;;;;11.50;5.75;;;17.90;1.00;;;;;;10400398;28;20219;-77
2023/05/22 21:00:33;;;;;;;17.17;5.55;;;17.70;99.90;;;;;;10399653;28;20197;-77
2023/05/22 21:05:54;;;;;;;14.52;5.20;;;17.60;99.90;;;;;;10378496;28;20226;-76
2023/05/22 21:11:19;;;;;;;9.55;4.35;;;;;;;;;;10431351;28;20313;-77
2023/05/22 21:16:40;;;;;;;6.82;3.50;;;17.40;99.90;;;;;;10400028;28;20193;-78
2023/05/22 21:22:01;;;;;;;5.68;3.40;;;;;;;;;;10400235;28;20190;-77
2023/05/22 21:27:42;;;;;;;4.13;2.58;;;;;;;;;;10392894;28;20204;-77
2023/05/22 21:33:04;;;;;;;12.07;2.95;;;;;;;;;;10358855;28;20218;-78
2023/05/22 21:38:25;;;;;;;5.20;2.92;;;;;;;;;;10382951;28;20280;-77
2023/05/22 21:43:46;;;;;;;5.75;2.72;;;17.20;1.00;;;;;;10388502;28;20193;-77
2023/05/22 21:49:08;;;;;;;5.55;2.80;;;17.10;99.90;;;;;;10372186;28;20197;-76
2023/05/22 21:54:29;;;;;;;3.53;2.60;;;17.00;99.90;;;;;;10414554;28;20452;-77
2023/05/22 21:59:51;;;;;;;3.88;3.10;;;16.90;99.90;;;;;;10395845;28;20568;-77
2023/05/22 22:05:12;;;;;;;10.48;4.57;;;16.90;99.90;;;;;;10373177;28;20237;-76
2023/05/22 22:10:34;;;;;;;13.95;5.13;;;16.80;99.90;;;;;;10414085;28;20281;-77
2023/05/22 22:15:56;;;;;;;17.98;6.55;;;16.80;99.90;;;;;;10439302;28;20409;-76
2023/05/22 22:21:17;;;;;;;26.63;7.30;;;16.70;99.90;;;;;;10433098;28;20207;-76
2023/05/22 22:26:38;;;;;;;17.60;6.68;;;16.60;99.90;;;;;;10438879;28;20192;-76
2023/05/22 22:31:59;;;;;;;19.73;7.15;;;16.60;99.90;;;;;;10387204;28;20225;-76
2023/05/22 22:37:20;;;;;;;14.00;5.90;;;16.60;99.90;;;;;;10364345;28;20479;-77
2023/05/22 22:42:41;;;;;;;14.95;5.53;;;16.50;99.90;;;;;;10380655;28;20236;-76
2023/05/22 22:48:02;;;;;;;7.22;3.95;;;16.50;99.90;;;;;;10396413;28;20191;-76
2023/05/22 22:53:23;;;;;;;8.27;4.30;;;16.40;99.90;;;;;;10375017;28;20264;-75
2023/05/22 22:58:44;;;;;;;6.18;3.60;;;16.30;99.90;;;;;;10372543;28;20284;-76
2023/05/22 23:04:05;;;;;;;5.70;3.22;;;16.30;99.90;;;;;;10378106;28;20232;-75
2023/05/22 23:09:26;;;;;;;5.95;2.75;;;16.20;99.90;;;;;;10425515;28;20266;-75
2023/05/22 23:14:49;;;;;;;4.18;2.92;;;16.20;99.90;;;;;;10435952;28;20459;-78
2023/05/22 23:20:10;;;;;;;6.22;3.42;;;16.10;99.90;;;;;;10442471;28;20253;-76
2023/05/22 23:25:31;;;;;;;6.30;2.90;;;16.10;99.90;;;;;;10436052;28;20192;-75
2023/05/22 23:30:52;;;;;;;3.72;3.15;;;16.00;99.90;;;;;;10408458;28;20409;-77
2023/05/22 23:36:14;;;;;;;6.95;3.65;;;16.00;99.90;;;;;;10355171;28;20412;-76
2023/05/22 23:41:36;;;;;;;7.68;3.95;;;15.90;99.90;;;;;;10361106;28;20209;-79
2023/05/22 23:46:57;;;;;;;4.07;3.38;;;15.80;99.90;;;;;;10394770;28;20193;-77
2023/05/22 23:52:18;;;;;;;4.28;3.30;;;15.70;99.90;;;;;;10371088;28;20432;-76
2023/05/22 23:57:39;;;;;;;5.93;2.92;;;15.70;99.90;;;;;;10356191;28;20199;-76
